If you wish to contribute or participate in the discussions about articles you are invited to join SKYbrary as a registered user

 Actions

Pohnpei International Airport

From SKYbrary Wiki

PTPN
Airport
ICAO: PTPN – IATA: PNI
Summary
Name Pohnpei International Airport
Region Asia and Pacific
Territory Federated States of Micronesia FM.gif
Location Dekehtik, Pohnpei
Serving Pohnpei Island
Elevation 3.048 m
10 ft3.048 m
Coordinates 6° 58' 40.74" N, 158° 12' 24.83" E
Runways
Designator Length Width Surface ROPS
9/27 1829 m6,000.656 ft
46 m150.919 ft
ASP yes/yes


METAR
Observation PTPN 130050Z 29010KT 15SM SCT018TCU BKN300 31/25 A2984 RMK TCU SE
Station Pohnpei Island, Pohnpei Int. Airp.
Date/Time 13 October 2019 00:50:00
Wind direction 290°
Wind speed 10 kts
Lowest cloud amount scattered clouds
Temperature 31°C
Dew point 25°C
Humidity 70%
QNH hPa
Weather condition n/a

Pohnpei International Airport is an airport located on Pohnpei Island (formerly Ponape), the main island of Pohnpei State.

Climatology

Tropical rainforest climate (Köppen climate classification Af)

Maps

Terrain

Loading map...

Airport Layout

Loading map...


Accidents & Serious Incidents at or in vicinity of PTPN

None on SKYbrary